Nearby METAR Reports

 

KORH - Worcester, Massachusetts, USA
Distance from station: NW 4mi, 7km
Updated: Tue, 17-May-2022 9:54pm EDT
Clear
Clear
 Wind from W
Wind: W 10 mph , 17 km/h
Temperature: 55°F , 13°C
Dew Point: 39°F , 4°C
Humidity: 55%
Barometer: 29.80 inHg , 1009.1 hPa
Clouds: Clear
Visibility: 10 miles , 16 km
2022/05/18 01:54 KORH 180154Z 28009KT 10SM CLR 13/04 A2980 RMK AO2 SLP091 T01330039
KBOS - Boston, Massachusetts, USA
Distance from station: ENE 42mi, 68km
Updated: Tue, 17-May-2022 9:54pm EDT
Few Clouds
Few Clouds
 Wind from WNW
Wind: WNW 23 mph , 37 km/h, Gust: 29 mph , 46 km/h
Temperature: 63°F , 17°C
Dew Point: 37°F , 3°C
Humidity: 39%
Barometer: 29.76 inHg , 1007.8 hPa
Clouds: Few Clouds
Visibility: 10 miles , 16 km
Cloud details: Few Clouds 7500 ft
2022/05/18 01:54 KBOS 180154Z 29020G25KT 10SM FEW075 17/03 A2976 RMK AO2 SLP077 T01720033 $
 
KCQX - Chatham, Massachusetts, USA
Distance from station: SE 102mi, 164km
Updated: Tue, 17-May-2022 9:52pm EDT
Mostly cloudy
Mostly cloudy
 Wind from varies
Wind: varies 5 mph , 7 km/h
Temperature: 59°F , 15°C
Dew Point: 46°F , 8°C
Humidity: 63%
Barometer: 29.77 inHg , 1008.1 hPa
Clouds: Mostly cloudy
Visibility: 10 miles , 16 km
Cloud details: Mostly cloudy 9000 ft
2022/05/18 01:52 KCQX 180152Z AUTO VRB04KT 10SM BKN090 15/08 A2977 RMK AO2 SLP081 T01500083
KMVY - Marthas Vineyard, Massachusetts, USA
Distance from station: SE 84mi, 135km
Updated: Tue, 17-May-2022 9:53pm EDT
Clear
Clear
 Wind from WNW
Wind: WNW 6 mph , 9 km/h
Temperature: 55°F , 13°C
Dew Point: 48°F , 9°C
Humidity: 77%
Barometer: 29.78 inHg , 1008.5 hPa
Clouds: Clear
Visibility: 10 miles , 16 km
2022/05/18 01:53 KMVY 180153Z 29005KT 10SM CLR 13/09 A2978 RMK AO2 SLP083 T01330094
 
KPVC - Provincetown, Massachusetts, USA
Distance from station: NNW 85mi, 136km
Updated: Tue, 17-May-2022 9:56pm EDT
Clear
Clear
 Wind from WNW
Wind: WNW 13 mph , 20 km/h
Temperature: 57°F , 14°C
Dew Point: 45°F , 7°C
Humidity: 63%
Barometer: 29.76 inHg , 1007.8 hPa
Clouds: Clear
Visibility: 10 miles , 16 km
2022/05/18 01:56 KPVC 180156Z AUTO 29011KT 10SM CLR 14/07 A2976 RMK AO2 SLP077 T01440072
KAQW - Savoy, Massachusetts, USA
Distance from station: NNW 66mi, 106km
Updated: Tue, 17-May-2022 9:52pm EDT
Overcast
Overcast
 Wind from W
Wind: W 18 mph , 30 km/h, Gust: 28 mph , 44 km/h
Temperature: 57°F , 14°C
Dew Point: 43°F , 6°C
Humidity: 59%
Barometer: 29.85 inHg , 1010.8 hPa
Clouds: Overcast
Visibility: 10 miles , 16 km
Cloud details: Overcast 3400 ft
2022/05/18 01:52 KAQW 180152Z AUTO 27016G24KT 10SM OVC034 14/06 A2985 RMK AO2 PK WND 26027/0101 SLP108 T01440061
 
KIZG - Fryeburg, Maine, USA
Distance from station: NNE 133mi, 214km
Updated: Tue, 17-May-2022 9:54pm EDT
Overcast
Overcast
 Wind from W
Wind: W 10 mph , 17 km/h, Gust: 17 mph , 28 km/h
Temperature: 55°F , 13°C
Dew Point: 43°F , 6°C
Humidity: 63%
Barometer: 29.70 inHg , 1005.8 hPa
Clouds: Overcast
Visibility: 10 miles , 16 km
Cloud details: Partly cloudy 4400 ft
Overcast 5500 ft
2022/05/18 01:54 KIZG 180154Z AUTO 28009G15KT 10SM SCT044 OVC055 13/06 A2970 RMK AO2 SLP056 T01330061
KMWN - Mt Washington, New Hampshire, USA
Distance from station: NNE 146mi, 234km
Updated: Tue, 17-May-2022 9:59pm EDT
Light snow, Showers, Light ice pellets, Showers, Freezing, Fog, Overcast
Light snow, Showers, Light ice pellets, Showers, Freezing, Fog, Overcast
 Wind from WNW
Wind: WNW 59 mph , 94 km/h, Gust: 76 mph , 122 km/h
Temperature: 30°F , -1°C
Wind Chill: 10°F , -12°C
Dew Point: 30°F , -1°C
Humidity: 100%
Summary: Light snow, Showers, Light ice pellets, Showers, Freezing, Fog
Clouds: Overcast
Visibility: 0 miles , 0 km
Cloud details: Overcast 0 ft
2022/05/18 01:59 KMWN 180159Z 29051G66KT 0SM -SHSN -SHPL FZFG VV000 M01/M01 RMK SHSNB01SHPLB01FZRAE03 VRY LGT GICG
 
KBML - Berlin, New Hampshire, USA
Distance from station: NNE 160mi, 257km
Updated: Tue, 17-May-2022 9:52pm EDT
Light rain, Overcast
Light rain, Overcast
 Wind from calm
Wind: Calm
Temperature: 48°F , 9°C
Dew Point: 45°F , 7°C
Humidity: 87%
Barometer: 29.68 inHg , 1005.1 hPa
Summary: Light rain
Clouds: Overcast
Visibility: 8 miles , 13 km
Cloud details: Mostly cloudy 2500 ft
Mostly cloudy 3200 ft
Overcast 7000 ft
2022/05/18 01:52 KBML 180152Z AUTO 00000KT 8SM -RA BKN025 BKN032 OVC070 09/07 A2968 RMK AO2 RAE09B45 SLP053 P0000 T00940072